sensor_id;sensor_type;location;lat;lon;timestamp;pressure;altitude;pressure_sealevel;temperature;humidity
51468;BME280;37545;45.302;-122.946;2023-03-16T00:01:03;101731.09;;;14.82;38.06
51468;BME280;37545;45.302;-122.946;2023-03-16T00:03:34;101716.91;;;14.71;37.85
51468;BME280;37545;45.302;-122.946;2023-03-16T00:06:03;101727.25;;;14.70;37.94
51468;BME280;37545;45.302;-122.946;2023-03-16T00:08:38;101732.66;;;14.77;38.92
51468;BME280;37545;45.302;-122.946;2023-03-16T00:11:08;101726.56;;;14.75;38.50
51468;BME280;37545;45.302;-122.946;2023-03-16T00:13:37;101721.88;;;14.63;38.88
51468;BME280;37545;45.302;-122.946;2023-03-16T00:16:08;101734.56;;;14.53;39.68
51468;BME280;37545;45.302;-122.946;2023-03-16T00:18:44;101733.63;;;14.51;39.78
51468;BME280;37545;45.302;-122.946;2023-03-16T00:21:13;101737.91;;;14.49;40.31
51468;BME280;37545;45.302;-122.946;2023-03-16T00:23:42;101732.63;;;14.45;39.25
51468;BME280;37545;45.302;-122.946;2023-03-16T00:26:11;101730.44;;;14.31;39.31
51468;BME280;37545;45.302;-122.946;2023-03-16T00:28:40;101726.56;;;14.16;40.65
51468;BME280;37545;45.302;-122.946;2023-03-16T00:31:10;101738.28;;;14.03;41.44
51468;BME280;37545;45.302;-122.946;2023-03-16T00:33:43;101727.50;;;13.91;42.01
51468;BME280;37545;45.302;-122.946;2023-03-16T00:36:11;101734.00;;;13.77;41.06
51468;BME280;37545;45.302;-122.946;2023-03-16T00:38:41;101728.25;;;13.60;41.48
51468;BME280;37545;45.302;-122.946;2023-03-16T00:41:13;101723.44;;;13.45;41.87
51468;BME280;37545;45.302;-122.946;2023-03-16T00:43:42;101731.56;;;13.29;42.20
51468;BME280;37545;45.302;-122.946;2023-03-16T00:46:12;101733.59;;;13.13;42.27
51468;BME280;37545;45.302;-122.946;2023-03-16T00:48:44;101733.09;;;12.99;41.95
51468;BME280;37545;45.302;-122.946;2023-03-16T00:51:15;101734.38;;;12.87;42.79
51468;BME280;37545;45.302;-122.946;2023-03-16T00:53:45;101733.16;;;12.77;43.26
51468;BME280;37545;45.302;-122.946;2023-03-16T00:56:14;101739.75;;;12.67;43.90
51468;BME280;37545;45.302;-122.946;2023-03-16T00:58:43;101735.16;;;12.60;43.00
51468;BME280;37545;45.302;-122.946;2023-03-16T01:01:14;101740.13;;;12.54;43.70
51468;BME280;37545;45.302;-122.946;2023-03-16T01:03:44;101741.53;;;12.46;44.07
51468;BME280;37545;45.302;-122.946;2023-03-16T01:06:15;101744.63;;;12.35;43.61
51468;BME280;37545;45.302;-122.946;2023-03-16T01:08:45;101743.56;;;12.30;44.32
51468;BME280;37545;45.302;-122.946;2023-03-16T01:11:15;101741.59;;;12.25;44.54
51468;BME280;37545;45.302;-122.946;2023-03-16T01:13:45;101744.03;;;12.20;44.79
51468;BME280;37545;45.302;-122.946;2023-03-16T01:16:14;101747.22;;;12.13;44.90
51468;BME280;37545;45.302;-122.946;2023-03-16T01:18:45;101757.34;;;12.07;45.15
51468;BME280;37545;45.302;-122.946;2023-03-16T01:21:15;101752.81;;;12.01;45.00
51468;BME280;37545;45.302;-122.946;2023-03-16T01:23:43;101751.66;;;11.94;45.75
51468;BME280;37545;45.302;-122.946;2023-03-16T01:26:12;101753.13;;;11.88;46.14
51468;BME280;37545;45.302;-122.946;2023-03-16T01:28:43;101752.81;;;11.80;46.94
51468;BME280;37545;45.302;-122.946;2023-03-16T01:31:13;101759.31;;;11.70;47.50
51468;BME280;37545;45.302;-122.946;2023-03-16T01:33:42;101762.53;;;11.65;46.81
51468;BME280;37545;45.302;-122.946;2023-03-16T01:36:13;101757.09;;;11.59;47.32
51468;BME280;37545;45.302;-122.946;2023-03-16T01:38:42;101753.44;;;11.53;47.88
51468;BME280;37545;45.302;-122.946;2023-03-16T01:41:11;101758.50;;;11.50;47.70
51468;BME280;37545;45.302;-122.946;2023-03-16T01:43:47;101758.22;;;11.44;47.73
51468;BME280;37545;45.302;-122.946;2023-03-16T01:46:20;101753.53;;;11.36;48.05
51468;BME280;37545;45.302;-122.946;2023-03-16T01:48:54;101758.53;;;11.31;48.21
51468;BME280;37545;45.302;-122.946;2023-03-16T01:51:27;101754.94;;;11.27;47.98
51468;BME280;37545;45.302;-122.946;2023-03-16T01:54:00;101766.78;;;11.22;49.78
51468;BME280;37545;45.302;-122.946;2023-03-16T01:56:34;101770.00;;;11.17;50.07
51468;BME280;37545;45.302;-122.946;2023-03-16T01:59:08;101773.16;;;11.09;50.20
51468;BME280;37545;45.302;-122.946;2023-03-16T02:01:37;101766.81;;;11.03;50.58
51468;BME280;37545;45.302;-122.946;2023-03-16T02:04:16;101768.25;;;10.96;49.83
51468;BME280;37545;45.302;-122.946;2023-03-16T02:06:51;101771.47;;;10.90;50.56
51468;BME280;37545;45.302;-122.946;2023-03-16T02:09:23;101773.69;;;10.83;50.53
51468;BME280;37545;45.302;-122.946;2023-03-16T02:11:53;101782.00;;;10.76;50.04
51468;BME280;37545;45.302;-122.946;2023-03-16T02:14:22;101772.22;;;10.68;50.96
51468;BME280;37545;45.302;-122.946;2023-03-16T02:16:51;101773.63;;;10.62;51.13
51468;BME280;37545;45.302;-122.946;2023-03-16T02:19:28;101782.00;;;10.56;51.85
51468;BME280;37545;45.302;-122.946;2023-03-16T02:22:04;101781.72;;;10.50;52.29
51468;BME280;37545;45.302;-122.946;2023-03-16T02:24:35;101782.25;;;10.43;52.41
51468;BME280;37545;45.302;-122.946;2023-03-16T02:27:06;101781.00;;;10.35;53.02
51468;BME280;37545;45.302;-122.946;2023-03-16T02:30:00;101784.09;;;10.27;54.02
51468;BME280;37545;45.302;-122.946;2023-03-16T02:32:31;101786.31;;;10.20;53.82
51468;BME280;37545;45.302;-122.946;2023-03-16T02:35:01;101786.00;;;10.14;54.05
51468;BME280;37545;45.302;-122.946;2023-03-16T02:37:30;101783.06;;;10.06;55.29
51468;BME280;37545;45.302;-122.946;2023-03-16T02:40:00;101781.88;;;9.99;55.38
51468;BME280;37545;45.302;-122.946;2023-03-16T02:42:31;101791.03;;;9.93;55.71
51468;BME280;37545;45.302;-122.946;2023-03-16T02:45:01;101787.28;;;9.86;56.15
51468;BME280;37545;45.302;-122.946;2023-03-16T02:47:33;101785.28;;;9.80;57.23
51468;BME280;37545;45.302;-122.946;2023-03-16T02:50:03;101787.47;;;9.73;57.46
51468;BME280;37545;45.302;-122.946;2023-03-16T02:52:33;101783.69;;;9.66;57.92
51468;BME280;37545;45.302;-122.946;2023-03-16T02:55:02;101786.00;;;9.60;57.81
51468;BME280;37545;45.302;-122.946;2023-03-16T02:57:31;101788.03;;;9.49;57.90
51468;BME280;37545;45.302;-122.946;2023-03-16T03:00:01;101789.19;;;9.38;58.20
51468;BME280;37545;45.302;-122.946;2023-03-16T03:02:37;101792.19;;;9.29;59.08
51468;BME280;37545;45.302;-122.946;2023-03-16T03:05:06;101801.41;;;9.24;59.78
51468;BME280;37545;45.302;-122.946;2023-03-16T03:07:34;101795.75;;;9.15;59.24
51468;BME280;37545;45.302;-122.946;2023-03-16T03:10:04;101787.44;;;9.04;60.83
51468;BME280;37545;45.302;-122.946;2023-03-16T03:12:32;101793.91;;;8.96;60.76
51468;BME280;37545;45.302;-122.946;2023-03-16T03:15:03;101797.88;;;8.89;60.95
51468;BME280;37545;45.302;-122.946;2023-03-16T03:17:32;101795.78;;;8.82;62.26
51468;BME280;37545;45.302;-122.946;2023-03-16T03:20:01;101798.09;;;8.77;61.47
51468;BME280;37545;45.302;-122.946;2023-03-16T03:22:33;101802.19;;;8.74;61.70
51468;BME280;37545;45.302;-122.946;2023-03-16T03:25:01;101798.75;;;8.73;61.47
51468;BME280;37545;45.302;-122.946;2023-03-16T03:27:30;101802.94;;;8.71;61.84
51468;BME280;37545;45.302;-122.946;2023-03-16T03:29:59;101803.66;;;8.69;62.13
51468;BME280;37545;45.302;-122.946;2023-03-16T03:32:29;101804.13;;;8.62;61.99
51468;BME280;37545;45.302;-122.946;2023-03-16T03:34:58;101811.53;;;8.55;62.82
51468;BME280;37545;45.302;-122.946;2023-03-16T03:37:26;101812.00;;;8.48;64.81
51468;BME280;37545;45.302;-122.946;2023-03-16T03:39:55;101814.59;;;8.48;66.08
51468;BME280;37545;45.302;-122.946;2023-03-16T03:42:24;101824.72;;;8.45;65.35
51468;BME280;37545;45.302;-122.946;2023-03-16T03:44:53;101821.97;;;8.42;65.09
51468;BME280;37545;45.302;-122.946;2023-03-16T03:47:21;101817.50;;;8.39;64.22
51468;BME280;37545;45.302;-122.946;2023-03-16T03:49:51;101817.41;;;8.38;64.78
51468;BME280;37545;45.302;-122.946;2023-03-16T03:52:20;101822.41;;;8.35;64.98
51468;BME280;37545;45.302;-122.946;2023-03-16T03:54:48;101814.50;;;8.32;65.04
51468;BME280;37545;45.302;-122.946;2023-03-16T03:57:17;101827.22;;;8.29;64.60
51468;BME280;37545;45.302;-122.946;2023-03-16T03:59:45;101823.66;;;8.27;64.53
51468;BME280;37545;45.302;-122.946;2023-03-16T04:02:14;101828.81;;;8.27;64.66
51468;BME280;37545;45.302;-122.946;2023-03-16T04:04:43;101816.63;;;8.24;64.39
51468;BME280;37545;45.302;-122.946;2023-03-16T04:07:13;101821.72;;;8.23;65.05
51468;BME280;37545;45.302;-122.946;2023-03-16T04:09:41;101828.56;;;8.22;64.86
51468;BME280;37545;45.302;-122.946;2023-03-16T04:12:10;101828.50;;;8.21;64.73
51468;BME280;37545;45.302;-122.946;2023-03-16T04:14:39;101824.13;;;8.19;64.55
51468;BME280;37545;45.302;-122.946;2023-03-16T04:17:07;101830.88;;;8.17;64.44
51468;BME280;37545;45.302;-122.946;2023-03-16T04:19:37;101829.13;;;8.16;63.83
51468;BME280;37545;45.302;-122.946;2023-03-16T04:22:06;101817.81;;;8.14;64.14
51468;BME280;37545;45.302;-122.946;2023-03-16T04:24:36;101822.09;;;8.14;63.68
51468;BME280;37545;45.302;-122.946;2023-03-16T04:27:05;101817.81;;;8.14;63.41
51468;BME280;37545;45.302;-122.946;2023-03-16T04:29:34;101814.25;;;8.12;63.97
51468;BME280;37545;45.302;-122.946;2023-03-16T04:32:02;101814.88;;;8.08;63.33
51468;BME280;37545;45.302;-122.946;2023-03-16T04:34:31;101813.03;;;8.06;63.28
51468;BME280;37545;45.302;-122.946;2023-03-16T04:36:59;101810.28;;;8.03;64.91
51468;BME280;37545;45.302;-122.946;2023-03-16T04:39:28;101811.00;;;8.00;65.02
51468;BME280;37545;45.302;-122.946;2023-03-16T04:41:58;101810.81;;;7.97;64.42
51468;BME280;37545;45.302;-122.946;2023-03-16T04:44:27;101814.09;;;7.94;64.61
51468;BME280;37545;45.302;-122.946;2023-03-16T04:46:55;101800.97;;;7.90;64.97
51468;BME280;37545;45.302;-122.946;2023-03-16T04:49:24;101806.66;;;7.84;65.14
51468;BME280;37545;45.302;-122.946;2023-03-16T04:51:53;101808.00;;;7.78;65.82
51468;BME280;37545;45.302;-122.946;2023-03-16T04:54:21;101802.59;;;7.73;66.21
51468;BME280;37545;45.302;-122.946;2023-03-16T04:56:50;101800.56;;;7.67;65.13
51468;BME280;37545;45.302;-122.946;2023-03-16T04:59:20;101803.66;;;7.62;66.43
51468;BME280;37545;45.302;-122.946;2023-03-16T05:01:49;101805.78;;;7.54;66.62
51468;BME280;37545;45.302;-122.946;2023-03-16T05:04:17;101807.19;;;7.49;67.18
51468;BME280;37545;45.302;-122.946;2023-03-16T05:06:47;101806.22;;;7.47;68.36
51468;BME280;37545;45.302;-122.946;2023-03-16T05:09:16;101812.00;;;7.43;68.52
51468;BME280;37545;45.302;-122.946;2023-03-16T05:11:46;101811.63;;;7.37;70.15
51468;BME280;37545;45.302;-122.946;2023-03-16T05:14:14;101806.19;;;7.32;72.06
51468;BME280;37545;45.302;-122.946;2023-03-16T05:16:44;101808.78;;;7.32;74.09
51468;BME280;37545;45.302;-122.946;2023-03-16T05:19:13;101803.72;;;7.33;75.13
51468;BME280;37545;45.302;-122.946;2023-03-16T05:21:41;101803.63;;;7.32;75.49
51468;BME280;37545;45.302;-122.946;2023-03-16T05:24:11;101804.34;;;7.29;76.39
51468;BME280;37545;45.302;-122.946;2023-03-16T05:26:39;101802.63;;;7.30;77.09
51468;BME280;37545;45.302;-122.946;2023-03-16T05:29:08;101801.94;;;7.32;78.33
51468;BME280;37545;45.302;-122.946;2023-03-16T05:31:37;101799.34;;;7.32;78.15
51468;BME280;37545;45.302;-122.946;2023-03-16T05:34:07;101793.50;;;7.35;79.07
51468;BME280;37545;45.302;-122.946;2023-03-16T05:36:35;101795.28;;;7.36;78.79
51468;BME280;37545;45.302;-122.946;2023-03-16T05:39:04;101800.59;;;7.39;78.48
51468;BME280;37545;45.302;-122.946;2023-03-16T05:41:33;101799.72;;;7.39;78.66
51468;BME280;37545;45.302;-122.946;2023-03-16T05:44:02;101786.03;;;7.40;77.34
51468;BME280;37545;45.302;-122.946;2023-03-16T05:46:31;101789.53;;;7.40;77.85
51468;BME280;37545;45.302;-122.946;2023-03-16T05:48:59;101788.72;;;7.41;77.37
51468;BME280;37545;45.302;-122.946;2023-03-16T05:51:29;101783.56;;;7.41;76.78
51468;BME280;37545;45.302;-122.946;2023-03-16T05:53:58;101782.69;;;7.41;76.98
51468;BME280;37545;45.302;-122.946;2023-03-16T05:56:27;101788.81;;;7.43;76.44
51468;BME280;37545;45.302;-122.946;2023-03-16T05:58:56;101793.88;;;7.41;76.23
51468;BME280;37545;45.302;-122.946;2023-03-16T06:01:25;101791.13;;;7.38;76.24
51468;BME280;37545;45.302;-122.946;2023-03-16T06:03:54;101792.72;;;7.36;75.96
51468;BME280;37545;45.302;-122.946;2023-03-16T06:06:23;101789.25;;;7.36;76.18
51468;BME280;37545;45.302;-122.946;2023-03-16T06:08:53;101786.59;;;7.34;76.05
51468;BME280;37545;45.302;-122.946;2023-03-16T06:11:21;101783.03;;;7.32;75.65
51468;BME280;37545;45.302;-122.946;2023-03-16T06:13:50;101790.66;;;7.30;75.59
51468;BME280;37545;45.302;-122.946;2023-03-16T06:16:18;101787.19;;;7.30;74.50
51468;BME280;37545;45.302;-122.946;2023-03-16T06:18:47;101787.13;;;7.28;74.76
51468;BME280;37545;45.302;-122.946;2023-03-16T06:21:16;101785.31;;;7.27;74.81
51468;BME280;37545;45.302;-122.946;2023-03-16T06:23:45;101785.31;;;7.27;74.19
51468;BME280;37545;45.302;-122.946;2023-03-16T06:26:15;101786.03;;;7.25;74.15
51468;BME280;37545;45.302;-122.946;2023-03-16T06:28:43;101786.75;;;7.22;74.77
51468;BME280;37545;45.302;-122.946;2023-03-16T06:31:12;101797.75;;;7.20;74.21
51468;BME280;37545;45.302;-122.946;2023-03-16T06:33:40;101794.19;;;7.18;74.29
51468;BME280;37545;45.302;-122.946;2023-03-16T06:36:09;101787.09;;;7.13;74.20
51468;BME280;37545;45.302;-122.946;2023-03-16T06:38:37;101787.78;;;7.11;74.68
51468;BME280;37545;45.302;-122.946;2023-03-16T06:41:06;101792.75;;;7.08;73.66
51468;BME280;37545;45.302;-122.946;2023-03-16T06:43:36;101785.72;;;7.05;73.98
51468;BME280;37545;45.302;-122.946;2023-03-16T06:46:05;101795.94;;;7.04;74.42
51468;BME280;37545;45.302;-122.946;2023-03-16T06:48:33;101794.16;;;7.03;74.56
51468;BME280;37545;45.302;-122.946;2023-03-16T06:51:02;101788.81;;;7.00;74.70
51468;BME280;37545;45.302;-122.946;2023-03-16T06:53:33;101791.28;;;6.98;75.26
51468;BME280;37545;45.302;-122.946;2023-03-16T06:56:01;101796.25;;;6.95;75.17
51468;BME280;37545;45.302;-122.946;2023-03-16T06:58:30;101791.81;;;6.92;75.59
51468;BME280;37545;45.302;-122.946;2023-03-16T07:01:02;101789.97;;;6.90;76.20
51468;BME280;37545;45.302;-122.946;2023-03-16T07:03:30;101784.59;;;6.87;76.27
51468;BME280;37545;45.302;-122.946;2023-03-16T07:05:59;101784.25;;;6.81;76.36
51468;BME280;37545;45.302;-122.946;2023-03-16T07:08:27;101778.72;;;6.75;76.80
51468;BME280;37545;45.302;-122.946;2023-03-16T07:10:56;101779.31;;;6.70;76.86
51468;BME280;37545;45.302;-122.946;2023-03-16T07:13:25;101783.41;;;6.67;77.02
51468;BME280;37545;45.302;-122.946;2023-03-16T07:15:53;101784.13;;;6.64;76.97
51468;BME280;37545;45.302;-122.946;2023-03-16T07:18:23;101784.78;;;6.62;77.34
51468;BME280;37545;45.302;-122.946;2023-03-16T07:20:52;101784.50;;;6.57;77.40
51468;BME280;37545;45.302;-122.946;2023-03-16T07:23:21;101779.97;;;6.53;78.27
51468;BME280;37545;45.302;-122.946;2023-03-16T07:25:50;101779.59;;;6.47;78.41
51468;BME280;37545;45.302;-122.946;2023-03-16T07:28:19;101780.28;;;6.44;78.59
51468;BME280;37545;45.302;-122.946;2023-03-16T07:30:49;101779.31;;;6.42;79.25
51468;BME280;37545;45.302;-122.946;2023-03-16T07:33:17;101779.78;;;6.37;79.70
51468;BME280;37545;45.302;-122.946;2023-03-16T07:35:47;101772.78;;;6.34;79.62
51468;BME280;37545;45.302;-122.946;2023-03-16T07:38:17;101777.75;;;6.31;80.00
51468;BME280;37545;45.302;-122.946;2023-03-16T07:40:46;101776.75;;;6.29;80.17
51468;BME280;37545;45.302;-122.946;2023-03-16T07:43:15;101776.75;;;6.29;80.23
51468;BME280;37545;45.302;-122.946;2023-03-16T07:45:47;101767.06;;;6.25;80.02
51468;BME280;37545;45.302;-122.946;2023-03-16T07:48:17;101760.16;;;6.24;80.30
51468;BME280;37545;45.302;-122.946;2023-03-16T07:50:48;101767.75;;;6.22;80.47
51468;BME280;37545;45.302;-122.946;2023-03-16T07:53:17;101759.16;;;6.22;80.00
51468;BME280;37545;45.302;-122.946;2023-03-16T07:55:45;101753.03;;;6.20;80.11
51468;BME280;37545;45.302;-122.946;2023-03-16T07:58:14;101755.63;;;6.20;80.09
51468;BME280;37545;45.302;-122.946;2023-03-16T08:00:43;101761.56;;;6.19;79.46
51468;BME280;37545;45.302;-122.946;2023-03-16T08:03:12;101753.75;;;6.17;79.75
51468;BME280;37545;45.302;-122.946;2023-03-16T08:05:40;101752.75;;;6.15;79.68
51468;BME280;37545;45.302;-122.946;2023-03-16T08:08:10;101753.44;;;6.13;79.51
51468;BME280;37545;45.302;-122.946;2023-03-16T08:10:41;101760.16;;;6.11;79.62
51468;BME280;37545;45.302;-122.946;2023-03-16T08:13:09;101756.72;;;6.10;79.81
51468;BME280;37545;45.302;-122.946;2023-03-16T08:15:38;101752.28;;;6.07;79.38
51468;BME280;37545;45.302;-122.946;2023-03-16T08:18:07;101752.06;;;6.04;79.53
51468;BME280;37545;45.302;-122.946;2023-03-16T08:20:36;101758.00;;;6.03;79.68
51468;BME280;37545;45.302;-122.946;2023-03-16T08:23:04;101752.75;;;6.02;79.55
51468;BME280;37545;45.302;-122.946;2023-03-16T08:25:34;101745.75;;;5.99;79.58
51468;BME280;37545;45.302;-122.946;2023-03-16T08:28:03;101743.88;;;5.97;80.04
51468;BME280;37545;45.302;-122.946;2023-03-16T08:30:34;101745.25;;;5.92;80.37
51468;BME280;37545;45.302;-122.946;2023-03-16T08:33:03;101738.00;;;5.86;80.87
51468;BME280;37545;45.302;-122.946;2023-03-16T08:35:32;101749.84;;;5.84;81.11
51468;BME280;37545;45.302;-122.946;2023-03-16T08:38:01;101748.91;;;5.82;81.56
51468;BME280;37545;45.302;-122.946;2023-03-16T08:40:29;101747.09;;;5.81;82.09
51468;BME280;37545;45.302;-122.946;2023-03-16T08:43:01;101746.03;;;5.77;82.37
51468;BME280;37545;45.302;-122.946;2023-03-16T08:45:30;101746.69;;;5.75;81.77
51468;BME280;37545;45.302;-122.946;2023-03-16T08:47:59;101743.16;;;5.73;81.71
51468;BME280;37545;45.302;-122.946;2023-03-16T08:50:27;101739.63;;;5.71;81.86
51468;BME280;37545;45.302;-122.946;2023-03-16T08:52:56;101740.19;;;5.66;81.25
51468;BME280;37545;45.302;-122.946;2023-03-16T08:55:24;101743.22;;;5.61;82.92
51468;BME280;37545;45.302;-122.946;2023-03-16T08:57:54;101742.94;;;5.56;82.24
51468;BME280;37545;45.302;-122.946;2023-03-16T09:00:25;101738.19;;;5.49;83.34
51468;BME280;37545;45.302;-122.946;2023-03-16T09:02:54;101742.94;;;5.43;83.58
51468;BME280;37545;45.302;-122.946;2023-03-16T09:05:23;101733.25;;;5.39;83.32
51468;BME280;37545;45.302;-122.946;2023-03-16T09:07:52;101730.47;;;5.36;83.81
51468;BME280;37545;45.302;-122.946;2023-03-16T09:10:21;101741.41;;;5.33;83.58
51468;BME280;37545;45.302;-122.946;2023-03-16T09:12:51;101735.41;;;5.33;83.39
51468;BME280;37545;45.302;-122.946;2023-03-16T09:15:28;101730.97;;;5.30;83.09
51468;BME280;37545;45.302;-122.946;2023-03-16T09:17:56;101724.94;;;5.30;83.14
51468;BME280;37545;45.302;-122.946;2023-03-16T09:20:26;101721.38;;;5.28;83.27
51468;BME280;37545;45.302;-122.946;2023-03-16T09:22:54;101725.63;;;5.27;83.24
51468;BME280;37545;45.302;-122.946;2023-03-16T09:25:23;101722.97;;;5.25;83.57
51468;BME280;37545;45.302;-122.946;2023-03-16T09:27:52;101719.28;;;5.22;83.27
51468;BME280;37545;45.302;-122.946;2023-03-16T09:30:21;101719.22;;;5.20;83.78
51468;BME280;37545;45.302;-122.946;2023-03-16T09:32:51;101719.28;;;5.22;83.86
51468;BME280;37545;45.302;-122.946;2023-03-16T09:35:19;101714.66;;;5.16;84.01
51468;BME280;37545;45.302;-122.946;2023-03-16T09:37:48;101713.84;;;5.17;84.86
51468;BME280;37545;45.302;-122.946;2023-03-16T09:40:22;101715.41;;;5.15;84.36
51468;BME280;37545;45.302;-122.946;2023-03-16T09:43:05;101718.59;;;5.11;84.05
51468;BME280;37545;45.302;-122.946;2023-03-16T09:45:41;101719.06;;;5.06;84.71
51468;BME280;37545;45.302;-122.946;2023-03-16T09:48:17;101720.31;;;4.99;85.85
51468;BME280;37545;45.302;-122.946;2023-03-16T09:50:46;101708.00;;;4.93;86.89
51468;BME280;37545;45.302;-122.946;2023-03-16T09:53:22;101706.19;;;4.92;86.72
51468;BME280;37545;45.302;-122.946;2023-03-16T09:55:54;101701.06;;;4.92;86.21
51468;BME280;37545;45.302;-122.946;2023-03-16T09:58:25;101702.66;;;4.90;87.64
51468;BME280;37545;45.302;-122.946;2023-03-16T10:01:00;101705.69;;;4.85;88.54
51468;BME280;37545;45.302;-122.946;2023-03-16T10:03:53;101699.38;;;4.79;89.37
51468;BME280;37545;45.302;-122.946;2023-03-16T10:06:26;101695.81;;;4.77;88.36
51468;BME280;37545;45.302;-122.946;2023-03-16T10:09:01;101692.44;;;4.78;88.54
51468;BME280;37545;45.302;-122.946;2023-03-16T10:11:35;101690.78;;;4.79;88.11
51468;BME280;37545;45.302;-122.946;2023-03-16T10:14:13;101677.06;;;4.78;87.86
51468;BME280;37545;45.302;-122.946;2023-03-16T10:16:47;101679.63;;;4.78;89.18
51468;BME280;37545;45.302;-122.946;2023-03-16T10:19:22;101670.63;;;4.72;89.20
51468;BME280;37545;45.302;-122.946;2023-03-16T10:21:56;101678.44;;;4.73;88.66
51468;BME280;37545;45.302;-122.946;2023-03-16T10:24:39;101671.31;;;4.69;88.66
51468;BME280;37545;45.302;-122.946;2023-03-16T10:27:17;101676.44;;;4.69;88.91
51468;BME280;37545;45.302;-122.946;2023-03-16T10:29:47;101675.56;;;4.69;88.74
51468;BME280;37545;45.302;-122.946;2023-03-16T10:32:16;101672.22;;;4.70;89.98
51468;BME280;37545;45.302;-122.946;2023-03-16T10:34:52;101665.41;;;4.70;89.67
51468;BME280;37545;45.302;-122.946;2023-03-16T10:37:23;101663.72;;;4.71;89.75
51468;BME280;37545;45.302;-122.946;2023-03-16T10:39:53;101661.97;;;4.70;90.90
51468;BME280;37545;45.302;-122.946;2023-03-16T10:42:23;101655.91;;;4.69;89.80
51468;BME280;37545;45.302;-122.946;2023-03-16T10:44:57;101659.28;;;4.68;90.27
51468;BME280;37545;45.302;-122.946;2023-03-16T10:47:30;101659.28;;;4.68;90.08
51468;BME280;37545;45.302;-122.946;2023-03-16T10:50:10;101649.91;;;4.69;90.73
51468;BME280;37545;45.302;-122.946;2023-03-16T10:52:48;101643.09;;;4.69;91.07
51468;BME280;37545;45.302;-122.946;2023-03-16T10:55:22;101644.09;;;4.71;90.53
51468;BME280;37545;45.302;-122.946;2023-03-16T10:57:52;101641.66;;;4.73;90.47
51468;BME280;37545;45.302;-122.946;2023-03-16T11:00:25;101645.22;;;4.75;90.95
51468;BME280;37545;45.302;-122.946;2023-03-16T11:02:55;101645.09;;;4.73;89.35
51468;BME280;37545;45.302;-122.946;2023-03-16T11:05:30;101642.53;;;4.73;89.09
51468;BME280;37545;45.302;-122.946;2023-03-16T11:08:01;101631.84;;;4.67;89.35
51468;BME280;37545;45.302;-122.946;2023-03-16T11:10:38;101640.97;;;4.75;89.59
51468;BME280;37545;45.302;-122.946;2023-03-16T11:13:14;101641.75;;;4.74;89.56
51468;BME280;37545;45.302;-122.946;2023-03-16T11:15:48;101635.63;;;4.72;89.03
51468;BME280;37545;45.302;-122.946;2023-03-16T11:18:30;101631.97;;;4.69;90.00
51468;BME280;37545;45.302;-122.946;2023-03-16T11:21:10;101638.78;;;4.68;89.82
51468;BME280;37545;45.302;-122.946;2023-03-16T11:23:46;101621.22;;;4.61;90.20
51468;BME280;37545;45.302;-122.946;2023-03-16T11:26:21;101623.19;;;4.65;89.66
51468;BME280;37545;45.302;-122.946;2023-03-16T11:28:58;101622.22;;;4.63;89.49
51468;BME280;37545;45.302;-122.946;2023-03-16T11:31:38;101614.28;;;4.60;91.08
51468;BME280;37545;45.302;-122.946;2023-03-16T11:34:15;101623.34;;;4.55;90.93
51468;BME280;37545;45.302;-122.946;2023-03-16T11:36:50;101619.59;;;4.50;90.72
51468;BME280;37545;45.302;-122.946;2023-03-16T11:39:30;101619.41;;;4.47;91.25
51468;BME280;37545;45.302;-122.946;2023-03-16T11:42:21;101621.63;;;4.42;91.43
51468;BME280;37545;45.302;-122.946;2023-03-16T11:44:54;101617.84;;;4.37;91.81
51468;BME280;37545;45.302;-122.946;2023-03-16T11:47:58;101616.56;;;4.30;92.89
51468;BME280;37545;45.302;-122.946;2023-03-16T11:50:46;101613.78;;;4.27;92.53
51468;BME280;37545;45.302;-122.946;2023-03-16T11:53:44;101611.91;;;4.25;93.25
51468;BME280;37545;45.302;-122.946;2023-03-16T11:56:22;101616.16;;;4.24;92.17
51468;BME280;37545;45.302;-122.946;2023-03-16T11:59:07;101610.13;;;4.24;92.66
51468;BME280;37545;45.302;-122.946;2023-03-16T12:01:51;101610.22;;;4.25;92.26
51468;BME280;37545;45.302;-122.946;2023-03-16T12:04:29;101612.91;;;4.27;92.03
51468;BME280;37545;45.302;-122.946;2023-03-16T12:07:12;101608.78;;;4.29;92.41
51468;BME280;37545;45.302;-122.946;2023-03-16T12:10:05;101609.66;;;4.29;92.11
51468;BME280;37545;45.302;-122.946;2023-03-16T12:12:49;101609.78;;;4.31;91.95
51468;BME280;37545;45.302;-122.946;2023-03-16T12:15:31;101609.78;;;4.31;91.93
51468;BME280;37545;45.302;-122.946;2023-03-16T12:18:07;101610.44;;;4.28;92.18
51468;BME280;37545;45.302;-122.946;2023-03-16T12:20:45;101605.31;;;4.28;92.04
51468;BME280;37545;45.302;-122.946;2023-03-16T12:23:17;101608.78;;;4.29;91.85
51468;BME280;37545;45.302;-122.946;2023-03-16T12:25:51;101606.09;;;4.27;92.11
51468;BME280;37545;45.302;-122.946;2023-03-16T12:28:25;101607.97;;;4.30;92.39
51468;BME280;37545;45.302;-122.946;2023-03-16T12:31:09;101603.84;;;4.32;92.40
51468;BME280;37545;45.302;-122.946;2023-03-16T12:34:05;101608.97;;;4.32;91.43
51468;BME280;37545;45.302;-122.946;2023-03-16T12:37:05;101605.53;;;4.31;90.25
51468;BME280;37545;45.302;-122.946;2023-03-16T12:39:47;101607.09;;;4.29;90.62
51468;BME280;37545;45.302;-122.946;2023-03-16T12:42:34;101600.97;;;4.27;90.72
51468;BME280;37545;45.302;-122.946;2023-03-16T12:45:11;101599.78;;;4.22;90.76
51468;BME280;37545;45.302;-122.946;2023-03-16T12:47:47;101598.66;;;4.18;91.18
51468;BME280;37545;45.302;-122.946;2023-03-16T12:50:18;101601.16;;;4.17;91.91